Monks Wood, United Kingdom

11:14 AM GMT on February 22, 2017 (GMT +0000)
Alconbury Weston | | Change Station

Elev 79 ft 52.37 °N, 0.28 °W | Updated 5 seconds ago

Rain
Rain
51.6 °F
Feels Like 51.6 °F
N
1.8
Wind Variable Wind from NW
Gusts 2.5 mph

Today
High -- | Low -- °F
--% Chance of Precip.
Yesterday
High -- | Low -- °F
Precip. -- in
Pressure 29.68 in
Visibility 1.6 miles
Clouds Scattered Clouds 500 ft
Scattered Clouds 1200 ft
Mostly Cloudy 2400 ft
Dew Point 49 °F
Humidity 91%
Rainfall 0.04 in
Snow Depth Not available.
7:02 AM 5:27 PM
Waning Crescent, 18% visible
METAR EGXT 221050Z 28010KT 2500 BR SCT005 SCT012 BKN024 09/08 Q1005 YLO1
Pressure 29.68 in
Visibility 1.6 miles
Clouds Scattered Clouds 500 ft
Scattered Clouds 1200 ft
Mostly Cloudy 2400 ft
Dew Point 49 °F
Humidity 91%
Rainfall 0.04 in
Snow Depth Not available.
7:02 AM 5:27 PM
Waning Crescent, 18% visible
METAR EGXT 221050Z 28010KT 2500 BR SCT005 SCT012 BKN024 09/08 Q1005 YLO1

Get Your Daily Forecast Email!

Thanks for signing up!

Be on the lookout for a verification email in your inbox.

You'll start receiving the daily forecast at 8 AM.

×

10-Day Weather Forecast

×

Almanac

Astronomy

Feb. 22, 2017 Rise Set
Actual Time
Civil Twilight
Nautical Twilight
Astronomical Twilight
Moon
Length of Visible Light
Length of Day
Tomorrow will be .
, % of the Moon is Illuminated

Today's Extremes

Country Highs Country Lows

Community

WunderPhotos

Upload Photos

1,962,540 photos uploaded!

WunderBlog® & News

Nearby

Air Quality

  Air Quality AQ Index Pollutant
Not available.

Snow Depth

Station Depth Elevation

Earthquake Activity

City Distance Mag. Time & Date
Minimum magnitude displayed is 2.5.

Coastal Water Temperatures

Place Temperature

Stations

Nearby Weather Stations

Station Location Temp. Windchill Dew Point Humidity Wind Precip. Elev Updated Type